Time;durP1;ratioP1;P1;durP2;ratioP2;P2;SDS_P1;SDS_P2;PMS_P1;PMS_P2;Temp;Humidity;BMP_temperature;BMP_pressure;BME280_temperature;BME280_humidity;BME280_pressure;Samples;Min_cycle;Max_cycle;Signal;HPM_P1;HPM_P2
2022/02/11 00:01:08;;;;;;;20.10;19.30;;;16.90;88.20;;;;;;5054497;28;20550;-51
2022/02/11 00:06:41;;;;;;;20.67;19.77;;;16.90;89.20;;;;;;5054405;28;20850;-54
2022/02/11 00:09:08;;;;;;;20.77;19.77;;;16.90;89.20;;;;;;5054255;28;20444;-50
2022/02/11 00:11:36;;;;;;;19.80;19.00;;;16.90;89.50;;;;;;5054399;28;20930;-49
2022/02/11 00:14:04;;;;;;;20.10;19.30;;;16.80;89.80;;;;;;5054459;28;20436;-50
2022/02/11 00:16:31;;;;;;;19.90;19.10;;;16.80;90.20;;;;;;5054054;28;20472;-49
2022/02/11 00:18:59;;;;;;;19.87;19.07;;;16.80;90.20;;;;;;5054170;28;20943;-48
2022/02/11 00:21:29;;;;;;;19.80;19.00;;;16.80;90.10;;;;;;5054306;28;20483;-48
2022/02/11 00:23:56;;;;;;;20.50;19.70;;;16.80;90.20;;;;;;5054118;28;20450;-52
2022/02/11 00:26:27;;;;;;;19.73;18.93;;;16.80;89.80;;;;;;5053862;28;20464;-51
2022/02/11 00:29:59;;;;;;;20.20;19.40;;;16.80;90.20;;;;;;5054130;28;20506;-47
2022/02/11 00:32:13;;;;;;;19.80;19.00;;;16.80;89.60;;;;;;5034190;28;20449;-48
2022/02/11 00:34:45;;;;;;;20.13;19.33;;;16.80;90.10;;;;;;5034100;28;20532;-51
2022/02/11 00:37:18;;;;;;;19.83;19.03;;;16.70;90.80;;;;;;5033795;28;20465;-48
2022/02/11 00:40:08;;;;;;;20.07;19.27;;;16.70;90.60;;;;;;5040305;28;20507;-49
2022/02/11 00:45:48;;;;;;;19.80;19.00;;;16.70;90.50;;;;;;5053172;28;20483;-53
2022/02/11 01:02:18;;;;;;;20.30;19.50;;;16.60;91.00;;;;;;4996881;28;20430;-52
2022/02/11 01:04:47;;;;;;;19.90;19.10;;;16.60;91.20;;;;;;5053455;28;20876;-51
2022/02/11 01:07:13;;;;;;;20.20;19.40;;;16.50;91.20;;;;;;5053719;28;20464;-48
2022/02/11 01:09:42;;;;;;;20.33;19.43;;;16.50;91.50;;;;;;5053152;28;20454;-49
2022/02/11 01:12:11;;;;;;;20.10;19.30;;;16.60;91.60;;;;;;5053335;28;20452;-46
2022/02/11 01:14:40;;;;;;;20.00;19.20;;;16.50;91.10;;;;;;5053325;28;20555;-48
2022/02/11 01:17:14;;;;;;;20.20;19.30;;;16.50;91.70;;;;;;5053021;28;20559;-46
2022/02/11 01:19:51;;;;;;;20.13;19.30;;;16.40;91.80;;;;;;5052984;28;20452;-46
2022/02/11 01:22:29;;;;;;;20.60;19.80;;;16.40;92.00;;;;;;5053237;28;20527;-47
2022/02/11 01:25:28;;;;;;;19.73;18.93;;;16.50;92.10;;;;;;5053000;28;20491;-49
2022/02/11 01:28:03;;;;;;;20.13;19.33;;;16.50;92.00;;;;;;5052666;28;20495;-51
2022/02/11 01:36:23;;;;;;;19.93;19.13;;;16.50;92.10;;;;;;5085280;28;20573;-46
2022/02/11 01:39:14;;;;;;;19.90;19.10;;;16.40;92.50;;;;;;5068816;28;20837;-45
2022/02/11 01:44:52;;;;;;;20.30;19.40;;;16.40;92.70;;;;;;5068840;28;20804;-48
2022/02/11 01:50:28;;;;;;;19.53;18.77;;;16.30;93.40;;;;;;5037732;28;20435;-51
2022/02/11 01:53:05;;;;;;;19.97;19.17;;;16.30;93.30;;;;;;5048840;28;20441;-54
2022/02/11 01:55:58;;;;;;;20.57;19.57;;;16.20;93.50;;;;;;5048626;28;20444;-48
2022/02/11 01:58:55;;;;;;;19.60;18.80;;;16.30;93.60;;;;;;5055828;28;20583;-49
2022/02/11 02:24:03;;;;;;;19.80;19.00;;;16.20;93.80;;;;;;5068089;28;20444;-49
2022/02/11 02:26:50;;;;;;;20.60;19.70;;;16.20;93.80;;;;;;5067750;28;20467;-53
2022/02/11 02:32:54;;;;;;;20.40;19.60;;;16.10;94.10;;;;;;5062278;28;20577;-47
2022/02/11 02:35:51;;;;;;;20.23;19.23;;;16.10;93.90;;;;;;5067531;28;21022;-45
2022/02/11 02:57:41;;;;;;;20.30;19.50;;;16.00;94.60;;;;;;5053843;28;20459;-49
2022/02/11 03:00:50;;;;;;;20.17;19.37;;;16.00;94.20;;;;;;5054311;28;20471;-47
2022/02/11 03:17:51;;;;;;;20.20;19.40;;;16.10;93.70;;;;;;5031426;28;20536;-51
2022/02/11 03:34:38;;;;;;;19.77;18.97;;;16.00;94.30;;;;;;5048759;28;20432;-53
2022/02/11 03:34:49;;;;;;;20.07;19.27;;;15.90;94.50;;;;;;5053269;28;20468;-49
2022/02/11 03:48:55;;;;;;;20.40;19.50;;;15.90;94.80;;;;;;5011444;28;20485;-47
2022/02/11 03:51:45;;;;;;;20.27;19.37;;;15.90;94.40;;;;;;5041871;28;20460;-51
2022/02/11 05:00:11;;;;;;;20.77;19.87;;;16.00;93.70;;;;;;5032183;28;20429;-50
2022/02/11 05:02:38;;;;;;;21.00;20.00;;;16.00;94.10;;;;;;5032328;28;20477;-50
2022/02/11 05:05:08;;;;;;;20.13;19.23;;;15.90;93.60;;;;;;5031921;28;20509;-47
2022/02/11 05:07:35;;;;;;;20.83;19.83;;;16.00;94.20;;;;;;5032787;28;20839;-46
2022/02/11 05:10:02;;;;;;;20.17;19.17;;;16.00;94.30;;;;;;5051539;28;20444;-47
2022/02/11 05:12:30;;;;;;;21.00;20.00;;;16.00;94.60;;;;;;5051908;28;20455;-49
2022/02/11 05:14:57;;;;;;;20.40;19.50;;;16.00;94.20;;;;;;5051840;28;20475;-49
2022/02/11 05:17:24;;;;;;;20.93;19.83;;;16.00;95.00;;;;;;5051300;28;20464;-49
2022/02/11 05:19:50;;;;;;;20.83;19.83;;;15.90;94.90;;;;;;5051659;28;20453;-49
2022/02/11 05:22:17;;;;;;;20.07;19.07;;;16.00;95.00;;;;;;5051769;28;20460;-49
2022/02/11 05:24:44;;;;;;;21.57;20.50;;;16.00;95.10;;;;;;5051288;28;20484;-51
2022/02/11 05:27:11;;;;;;;20.40;19.50;;;15.90;95.10;;;;;;5051377;28;20547;-49
2022/02/11 05:29:39;;;;;;;20.87;19.97;;;16.00;95.30;;;;;;5051476;28;20821;-50
2022/02/11 05:32:07;;;;;;;21.00;20.00;;;16.00;95.10;;;;;;5051603;28;20814;-47
2022/02/11 05:34:33;;;;;;;20.80;19.87;;;16.00;95.10;;;;;;5051576;28;20826;-50
2022/02/11 05:37:00;;;;;;;20.70;19.70;;;16.00;95.40;;;;;;5050993;28;20465;-46
2022/02/11 05:39:27;;;;;;;20.30;19.40;;;16.00;95.30;;;;;;5051535;28;20807;-49
2022/02/11 05:41:53;;;;;;;20.90;19.90;;;16.00;95.40;;;;;;5051532;28;20764;-50
2022/02/11 05:44:20;;;;;;;22.47;21.03;;;16.00;95.60;;;;;;5051161;28;20449;-47
2022/02/11 05:46:49;;;;;;;20.60;19.70;;;16.00;95.70;;;;;;5051173;28;20467;-48
2022/02/11 05:49:17;;;;;;;20.10;19.23;;;16.00;95.30;;;;;;5051354;28;20829;-47
2022/02/11 05:51:43;;;;;;;21.07;20.17;;;16.00;97.90;;;;;;5051469;28;20930;-49
2022/02/11 05:54:10;;;;;;;20.73;19.83;;;16.40;95.60;;;;;;5051143;28;20445;-47
2022/02/11 05:56:37;;;;;;;20.93;19.93;;;16.60;94.60;;;;;;5051186;28;20468;-48
2022/02/11 05:59:04;;;;;;;21.23;20.20;;;17.00;93.30;;;;;;5051303;28;20445;-53
2022/02/11 06:01:30;;;;;;;20.83;19.93;;;17.50;91.60;;;;;;5051339;28;20475;-49
2022/02/11 06:03:58;;;;;;;22.87;21.77;;;17.90;89.90;;;;;;5051125;28;20794;-46
2022/02/11 06:06:25;;;;;;;22.50;21.40;;;18.20;87.00;;;;;;5050807;28;20483;-49
2022/02/11 06:08:52;;;;;;;22.90;21.60;;;18.50;85.50;;;;;;5051262;28;20464;-48
2022/02/11 06:11:19;;;;;;;23.90;22.50;;;18.70;83.50;;;;;;5051296;28;20843;-53
2022/02/11 06:13:46;;;;;;;22.80;21.53;;;18.90;81.90;;;;;;5050960;28;20514;-51
2022/02/11 06:16:13;;;;;;;22.97;21.37;;;19.20;81.30;;;;;;5050972;28;20878;-52
2022/02/11 06:18:40;;;;;;;22.20;21.00;;;19.30;80.90;;;;;;5051101;28;20444;-52
2022/02/11 06:21:08;;;;;;;23.70;22.30;;;19.40;80.90;;;;;;5051957;28;21071;-49
2022/02/11 06:23:35;;;;;;;22.23;21.07;;;19.40;81.00;;;;;;5054819;28;20445;-49
2022/02/11 06:26:02;;;;;;;24.47;22.73;;;19.40;82.60;;;;;;5054404;28;20488;-47
2022/02/11 06:28:29;;;;;;;25.60;23.70;;;19.60;87.20;;;;;;5054876;28;20448;-47
2022/02/11 06:30:56;;;;;;;23.77;21.97;;;19.60;90.30;;;;;;5054353;28;20861;-49
2022/02/11 06:33:23;;;;;;;25.90;23.60;;;19.60;91.50;;;;;;5054648;28;20444;-51
2022/02/11 06:35:50;;;;;;;25.17;22.97;;;19.70;94.00;;;;;;5054366;28;20984;-48
2022/02/11 06:38:18;;;;;;;24.73;23.17;;;19.80;93.10;;;;;;5054591;28;20451;-49
2022/02/11 06:40:45;;;;;;;24.17;21.90;;;19.60;91.70;;;;;;5054459;28;20449;-47
2022/02/11 06:43:14;;;;;;;23.90;22.10;;;19.50;87.00;;;;;;5054979;28;20948;-51
2022/02/11 06:45:40;;;;;;;33.63;31.43;;;19.60;89.60;;;;;;5054012;28;20989;-52
2022/02/11 06:48:07;;;;;;;33.83;31.73;;;19.70;90.10;;;;;;5054150;28;20964;-48
2022/02/11 06:50:34;;;;;;;33.23;31.10;;;19.70;90.30;;;;;;5054483;28;20458;-46
2022/02/11 06:53:01;;;;;;;35.80;33.23;;;19.70;88.10;;;;;;5054497;28;20440;-47
2022/02/11 06:55:29;;;;;;;34.53;32.53;;;19.70;86.20;;;;;;5054180;28;20449;-48
2022/02/11 06:57:56;;;;;;;34.97;33.03;;;19.80;84.50;;;;;;5054045;28;20469;-49
2022/02/11 07:00:22;;;;;;;35.40;33.40;;;19.70;82.50;;;;;;5054268;28;20456;-47
2022/02/11 07:02:50;;;;;;;37.80;35.87;;;19.70;82.50;;;;;;5054175;28;20451;-51
2022/02/11 07:05:18;;;;;;;36.77;34.73;;;19.60;80.60;;;;;;5054017;28;20491;-49
2022/02/11 07:07:44;;;;;;;33.03;31.23;;;19.60;79.30;;;;;;5053872;28;21069;-48
2022/02/11 07:10:11;;;;;;;35.30;33.20;;;19.60;78.70;;;;;;5054006;28;20440;-46
2022/02/11 07:12:39;;;;;;;35.43;33.40;;;19.50;77.50;;;;;;5053929;28;20444;-48
2022/02/11 07:15:07;;;;;;;36.30;34.40;;;19.40;76.50;;;;;;5053834;28;20455;-48
2022/02/11 07:17:34;;;;;;;32.70;31.10;;;19.40;76.20;;;;;;5053713;28;20473;-48
2022/02/11 07:20:01;;;;;;;35.30;33.30;;;19.40;74.80;;;;;;5053817;28;20449;-50
2022/02/11 07:22:34;;;;;;;33.80;32.23;;;19.40;75.20;;;;;;5053864;28;20444;-53
2022/02/11 07:25:01;;;;;;;32.13;30.40;;;19.30;73.60;;;;;;5053790;28;21060;-46
2022/02/11 07:27:28;;;;;;;28.77;27.27;;;19.30;74.70;;;;;;5053480;28;20570;-49
2022/02/11 07:29:56;;;;;;;32.30;30.53;;;19.30;72.90;;;;;;5053624;28;20452;-51
2022/02/11 07:32:24;;;;;;;32.50;31.00;;;19.20;73.00;;;;;;5053443;28;20451;-48
2022/02/11 07:34:51;;;;;;;32.30;30.67;;;19.20;72.50;;;;;;5053414;28;20453;-45
2022/02/11 07:37:18;;;;;;;30.33;28.73;;;19.20;71.50;;;;;;5053253;28;20468;-53
2022/02/11 07:39:45;;;;;;;34.03;32.33;;;19.10;71.40;;;;;;5053495;28;20456;-49
2022/02/11 07:42:13;;;;;;;30.67;29.00;;;19.10;71.30;;;;;;5053491;28;20473;-50
2022/02/11 07:44:40;;;;;;;30.90;29.57;;;19.10;70.40;;;;;;5053359;28;20495;-50
2022/02/11 07:47:08;;;;;;;30.10;28.60;;;19.10;70.10;;;;;;5052958;28;20851;-51
2022/02/11 07:49:37;;;;;;;27.27;25.77;;;19.00;69.40;;;;;;5053807;28;20444;-44
2022/02/11 07:52:05;;;;;;;29.30;27.90;;;19.00;69.10;;;;;;5053225;28;20448;-45
2022/02/11 07:54:32;;;;;;;32.83;30.10;;;18.90;68.70;;;;;;5053193;28;20446;-47
2022/02/11 07:56:59;;;;;;;30.57;29.17;;;18.90;68.30;;;;;;5052891;28;20461;-44
2022/02/11 07:59:27;;;;;;;32.17;30.67;;;18.90;68.10;;;;;;5053232;28;20456;-45
2022/02/11 08:01:54;;;;;;;31.20;29.80;;;18.90;67.20;;;;;;5052934;28;20460;-46
2022/02/11 08:04:22;;;;;;;31.63;29.97;;;18.90;67.30;;;;;;5052953;28;20444;-46
2022/02/11 08:06:49;;;;;;;30.40;28.60;;;18.90;67.20;;;;;;5052669;28;20484;-44
2022/02/11 08:09:16;;;;;;;33.50;32.10;;;18.80;66.20;;;;;;5052946;28;20886;-44
2022/02/11 08:11:43;;;;;;;32.83;31.23;;;18.80;66.00;;;;;;5052885;28;20448;-45
2022/02/11 08:14:09;;;;;;;34.13;32.37;;;18.80;65.60;;;;;;5052865;28;20535;-47
2022/02/11 08:16:36;;;;;;;35.50;33.70;;;18.70;65.30;;;;;;5052455;28;20468;-45
2022/02/11 08:19:03;;;;;;;31.27;29.70;;;18.70;65.90;;;;;;5052687;28;20456;-48
2022/02/11 08:21:31;;;;;;;28.70;27.30;;;18.60;65.90;;;;;;5052803;28;20445;-46
2022/02/11 08:23:58;;;;;;;29.20;27.80;;;18.70;66.30;;;;;;5052714;28;20440;-45
2022/02/11 08:26:24;;;;;;;30.50;28.80;;;18.70;65.90;;;;;;5052335;28;20846;-46
2022/02/11 08:28:51;;;;;;;29.70;28.30;;;18.70;65.80;;;;;;5052447;28;20444;-44
2022/02/11 08:31:18;;;;;;;31.07;29.40;;;18.80;65.50;;;;;;5052419;28;20445;-46
2022/02/11 08:33:49;;;;;;;30.40;28.80;;;18.90;65.10;;;;;;5052310;28;20482;-47
2022/02/11 08:36:15;;;;;;;29.07;27.60;;;19.00;65.10;;;;;;5052195;28;20882;-44
2022/02/11 08:38:43;;;;;;;25.77;24.37;;;19.10;63.50;;;;;;5052318;28;20452;-43
2022/02/11 08:41:10;;;;;;;28.50;26.83;;;19.10;63.20;;;;;;5052401;28;20444;-47
2022/02/11 08:43:37;;;;;;;30.17;28.67;;;19.20;62.70;;;;;;5051798;28;20448;-46
2022/02/11 08:46:04;;;;;;;28.10;26.70;;;19.10;61.70;;;;;;5051904;28;20488;-44
2022/02/11 08:48:32;;;;;;;26.20;24.80;;;19.20;61.80;;;;;;5052273;28;20861;-46
2022/02/11 08:50:58;;;;;;;29.20;27.73;;;19.20;61.00;;;;;;5052260;28;20444;-45
2022/02/11 08:53:26;;;;;;;26.63;25.43;;;19.20;60.70;;;;;;5052199;28;20453;-48
2022/02/11 08:55:55;;;;;;;26.30;25.00;;;19.20;60.10;;;;;;5051909;28;20817;-45
2022/02/11 08:58:21;;;;;;;27.20;25.80;;;19.20;60.10;;;;;;5052015;28;20825;-45
2022/02/11 09:00:48;;;;;;;25.53;24.33;;;19.20;60.20;;;;;;5052003;28;20451;-45
2022/02/11 09:03:15;;;;;;;25.00;23.90;;;19.20;59.80;;;;;;5051989;28;20448;-45
2022/02/11 09:05:43;;;;;;;27.37;26.17;;;19.20;59.60;;;;;;5051655;28;20444;-44
2022/02/11 09:08:10;;;;;;;26.00;24.80;;;19.20;59.30;;;;;;5051986;28;20444;-50
2022/02/11 09:10:38;;;;;;;28.07;26.77;;;19.20;59.10;;;;;;5051829;28;20449;-45
2022/02/11 09:13:07;;;;;;;26.73;25.43;;;19.20;58.90;;;;;;5051843;28;20849;-48
2022/02/11 09:15:34;;;;;;;26.93;25.60;;;19.20;58.80;;;;;;5051482;28;20445;-44
2022/02/11 09:18:01;;;;;;;28.80;27.50;;;19.20;58.80;;;;;;5051507;28;20464;-48
2022/02/11 09:20:28;;;;;;;27.30;26.20;;;19.20;58.80;;;;;;5051849;28;20448;-44
2022/02/11 09:22:55;;;;;;;28.40;27.00;;;19.20;58.50;;;;;;5051580;28;20452;-44
2022/02/11 09:25:22;;;;;;;29.53;28.03;;;19.10;58.10;;;;;;5051453;28;20965;-44
2022/02/11 09:27:49;;;;;;;29.57;28.07;;;19.10;58.10;;;;;;5051343;28;20574;-48
2022/02/11 09:30:20;;;;;;;27.00;25.60;;;19.00;57.90;;;;;;5051583;28;20441;-44
2022/02/11 09:32:49;;;;;;;27.90;26.60;;;19.00;57.80;;;;;;5051627;28;20452;-45
2022/02/11 09:35:17;;;;;;;27.77;26.47;;;19.00;58.00;;;;;;5051195;28;20448;-44
2022/02/11 09:37:44;;;;;;;27.83;26.53;;;18.90;57.80;;;;;;5051411;28;20471;-45
2022/02/11 09:40:14;;;;;;;28.07;26.67;;;18.90;57.40;;;;;;5051553;28;20459;-48
2022/02/11 09:42:41;;;;;;;28.87;27.57;;;18.90;57.30;;;;;;5051506;28;20449;-47
2022/02/11 09:45:09;;;;;;;30.60;29.00;;;18.90;57.20;;;;;;5051472;28;20810;-45
2022/02/11 09:47:38;;;;;;;30.97;29.57;;;18.90;57.10;;;;;;5051154;28;20580;-45
2022/02/11 09:50:07;;;;;;;31.90;30.50;;;18.90;57.00;;;;;;5051463;28;20473;-45
2022/02/11 09:52:38;;;;;;;32.20;30.80;;;18.80;56.70;;;;;;5051341;28;21040;-45
2022/02/11 09:57:47;;;;;;;32.37;30.83;;;18.80;56.80;;;;;;5050028;28;20861;-47
2022/02/11 10:00:15;;;;;;;29.93;28.63;;;18.90;56.80;;;;;;5055644;28;20444;-44
2022/02/11 10:02:54;;;;;;;31.90;30.50;;;19.00;56.70;;;;;;5055309;28;20799;-44
2022/02/11 10:05:22;;;;;;;31.37;30.00;;;19.10;56.30;;;;;;5055095;28;20440;-48
2022/02/11 10:07:49;;;;;;;27.87;26.67;;;19.30;56.20;;;;;;5055081;28;20488;-48
2022/02/11 10:10:38;;;;;;;28.50;27.30;;;19.40;55.40;;;;;;5055147;28;21022;-44
2022/02/11 10:13:04;;;;;;;33.00;31.60;;;19.50;55.10;;;;;;5055005;28;20949;-45
2022/02/11 10:15:31;;;;;;;31.17;29.87;;;19.50;54.80;;;;;;5054952;28;20448;-47
2022/02/11 10:17:59;;;;;;;34.00;32.50;;;19.60;55.00;;;;;;5054842;28;20460;-44
2022/02/11 10:20:29;;;;;;;32.67;31.27;;;19.60;54.60;;;;;;5054920;28;20444;-43
2022/02/11 10:23:11;;;;;;;33.70;32.10;;;19.70;54.30;;;;;;5054948;28;20551;-46
2022/02/11 10:25:52;;;;;;;33.80;32.23;;;19.60;54.00;;;;;;5054609;28;20999;-45
2022/02/11 10:28:25;;;;;;;33.10;31.60;;;19.70;54.20;;;;;;5054769;28;20432;-46
2022/02/11 10:31:14;;;;;;;35.73;34.23;;;19.70;54.10;;;;;;5054828;28;20440;-47
2022/02/11 10:33:56;;;;;;;32.80;31.40;;;19.80;54.00;;;;;;5054732;28;20463;-45
2022/02/11 10:36:25;;;;;;;34.77;33.20;;;19.70;53.30;;;;;;5054364;28;20456;-46
2022/02/11 10:39:05;;;;;;;28.57;27.37;;;19.70;53.00;;;;;;5054667;28;20448;-48
2022/02/11 10:41:33;;;;;;;30.77;29.37;;;19.70;53.00;;;;;;5054645;28;20800;-44
2022/02/11 10:44:04;;;;;;;26.50;25.10;;;19.60;52.90;;;;;;5054539;28;20526;-47
2022/02/11 10:46:35;;;;;;;31.67;30.37;;;19.60;53.00;;;;;;5054088;28;20496;-44
2022/02/11 10:49:03;;;;;;;27.63;26.43;;;19.60;53.30;;;;;;5054558;28;20810;-45
2022/02/11 10:51:30;;;;;;;27.17;25.83;;;19.50;52.50;;;;;;5054385;28;20447;-45
2022/02/11 10:53:56;;;;;;;27.83;26.63;;;19.50;52.80;;;;;;5054387;28;20445;-49
2022/02/11 10:56:26;;;;;;;27.30;26.10;;;19.50;52.60;;;;;;5054050;28;20957;-44
2022/02/11 10:58:56;;;;;;;31.77;30.37;;;19.40;52.90;;;;;;5054211;28;20447;-49
2022/02/11 11:01:23;;;;;;;32.90;31.40;;;19.40;52.10;;;;;;5054269;28;20445;-46
2022/02/11 11:03:50;;;;;;;30.40;29.00;;;19.40;52.30;;;;;;5054216;28;20479;-45
2022/02/11 11:06:19;;;;;;;31.20;29.80;;;19.40;52.20;;;;;;5053741;28;20803;-48
2022/02/11 11:08:48;;;;;;;26.83;25.63;;;19.40;52.30;;;;;;5053774;28;20448;-46
2022/02/11 11:11:17;;;;;;;28.60;27.30;;;19.40;52.10;;;;;;5053962;28;20445;-48
2022/02/11 11:13:48;;;;;;;30.20;28.80;;;19.40;52.20;;;;;;5053896;28;20472;-45
2022/02/11 11:16:16;;;;;;;26.87;25.63;;;19.40;52.40;;;;;;5053800;28;20469;-44
2022/02/11 11:18:44;;;;;;;28.83;27.47;;;19.50;52.00;;;;;;5053925;28;20448;-46
2022/02/11 11:21:13;;;;;;;28.60;27.30;;;19.50;51.40;;;;;;5053962;28;20448;-46
2022/02/11 11:23:52;;;;;;;29.00;27.60;;;19.60;51.10;;;;;;5053788;28;20807;-47
2022/02/11 11:26:20;;;;;;;29.40;28.10;;;19.60;50.70;;;;;;5053377;28;20595;-48
2022/02/11 11:28:49;;;;;;;26.83;25.70;;;19.70;50.50;;;;;;5053750;28;20441;-46
2022/02/11 11:31:23;;;;;;;32.93;31.50;;;19.80;51.10;;;;;;5053641;28;20444;-48
2022/02/11 11:33:50;;;;;;;31.27;29.87;;;20.00;50.50;;;;;;5053731;28;20447;-45
2022/02/11 11:36:19;;;;;;;28.60;27.30;;;20.30;50.50;;;;;;5053398;28;20499;-46
2022/02/11 11:38:57;;;;;;;27.33;26.13;;;20.50;49.70;;;;;;5053536;28;20448;-48
2022/02/11 11:41:26;;;;;;;27.93;26.73;;;20.60;49.50;;;;;;5053406;28;20440;-47
2022/02/11 11:43:54;;;;;;;30.00;28.60;;;20.80;48.70;;;;;;5053552;28;20495;-46
2022/02/11 11:46:30;;;;;;;31.33;29.83;;;21.10;48.00;;;;;;5053092;28;20468;-47
2022/02/11 11:48:59;;;;;;;32.20;30.70;;;21.50;47.80;;;;;;5053471;28;20447;-46
2022/02/11 11:51:27;;;;;;;29.83;28.43;;;21.90;47.30;;;;;;5053204;28;20484;-45
2022/02/11 11:54:23;;;;;;;29.50;28.10;;;22.30;46.50;;;;;;5053250;28;20898;-45
2022/02/11 11:56:56;;;;;;;27.97;26.77;;;22.80;45.60;;;;;;5051908;28;20473;-47
2022/02/11 11:59:24;;;;;;;30.70;29.20;;;23.20;44.90;;;;;;5053131;28;20957;-45
2022/02/11 12:01:56;;;;;;;33.40;31.90;;;23.50;44.40;;;;;;5053115;28;20448;-45
2022/02/11 12:04:24;;;;;;;31.03;29.73;;;23.70;43.80;;;;;;5053061;28;20440;-49
2022/02/11 12:06:53;;;;;;;30.97;29.63;;;23.90;43.50;;;;;;5052675;28;20488;-49
2022/02/11 12:09:20;;;;;;;34.67;33.17;;;24.20;42.90;;;;;;5052977;28;20456;-49
2022/02/11 12:11:47;;;;;;;35.80;34.10;;;24.20;42.30;;;;;;5052992;28;20857;-46
2022/02/11 12:14:16;;;;;;;34.50;33.10;;;24.20;42.10;;;;;;5052850;28;20452;-47
2022/02/11 12:16:43;;;;;;;30.43;29.23;;;24.40;41.90;;;;;;5052529;28;20464;-46
2022/02/11 12:19:10;;;;;;;29.10;27.80;;;24.60;41.60;;;;;;5051983;28;20444;-45
2022/02/11 12:21:38;;;;;;;29.57;28.17;;;24.70;41.20;;;;;;5052778;28;20449;-50
2022/02/11 12:29:35;;;;;;;29.83;28.57;;;23.70;40.90;;;;;;5052634;28;20474;-45
2022/02/11 12:32:02;;;;;;;34.13;32.73;;;23.20;41.70;;;;;;5052470;28;20444;-43
2022/02/11 12:34:29;;;;;;;32.30;30.80;;;22.80;42.00;;;;;;5052257;28;20539;-47
2022/02/11 12:37:00;;;;;;;31.50;30.20;;;22.40;42.40;;;;;;5052249;28;20471;-44
2022/02/11 12:39:27;;;;;;;31.97;30.47;;;22.10;42.80;;;;;;5052386;28;20467;-45
2022/02/11 12:41:56;;;;;;;27.23;26.03;;;22.00;42.80;;;;;;5052167;28;20436;-45
2022/02/11 12:44:28;;;;;;;30.47;29.27;;;22.00;43.10;;;;;;5052291;28;20452;-48
2022/02/11 12:46:59;;;;;;;32.20;30.80;;;21.80;43.20;;;;;;5051945;28;20511;-48
2022/02/11 12:49:26;;;;;;;28.47;27.20;;;21.70;43.30;;;;;;5052213;28;20908;-49
2022/02/11 12:51:54;;;;;;;31.10;29.60;;;21.50;43.50;;;;;;5052208;28;20470;-46
2022/02/11 12:54:21;;;;;;;33.10;31.57;;;21.20;43.40;;;;;;5052127;28;20455;-45
2022/02/11 12:56:50;;;;;;;30.10;28.80;;;21.10;43.20;;;;;;5051681;28;20468;-44
2022/02/11 12:59:16;;;;;;;29.40;28.10;;;20.90;43.50;;;;;;5052052;28;20440;-44
2022/02/11 13:01:43;;;;;;;28.60;27.30;;;20.90;43.90;;;;;;5051923;28;20445;-48
2022/02/11 13:04:20;;;;;;;31.27;29.87;;;21.00;44.50;;;;;;5052001;28;20817;-51
2022/02/11 13:06:47;;;;;;;30.73;29.43;;;21.40;45.00;;;;;;5051601;28;20555;-48
2022/02/11 13:09:16;;;;;;;29.40;28.20;;;21.70;44.90;;;;;;5051691;28;20448;-47
2022/02/11 13:11:43;;;;;;;24.98;23.58;;;22.00;44.20;;;;;;5050541;28;20481;-47
2022/02/11 13:14:10;;;;;;;26.52;25.33;;;22.10;43.80;;;;;;5050456;28;20936;-46
2022/02/11 13:16:38;;;;;;;29.40;28.10;;;22.30;44.00;;;;;;5051429;28;20226;-45
2022/02/11 13:19:15;;;;;;;31.70;30.00;;;22.50;43.40;;;;;;5051707;28;20441;-49
2022/02/11 13:21:45;;;;;;;30.40;29.00;;;22.60;43.60;;;;;;5051627;28;21040;-47
2022/02/11 13:24:12;;;;;;;31.87;30.47;;;22.80;43.50;;;;;;5051128;28;20448;-46
2022/02/11 13:26:39;;;;;;;32.00;30.50;;;22.80;43.30;;;;;;5051374;28;20626;-47
2022/02/11 13:29:13;;;;;;;30.60;29.30;;;22.90;43.70;;;;;;5051554;28;20480;-47
2022/02/11 13:31:47;;;;;;;30.40;29.20;;;23.00;43.80;;;;;;5051194;28;20502;-46
2022/02/11 13:34:14;;;;;;;26.48;25.38;;;23.20;43.30;;;;;;5051082;28;20860;-47
2022/02/11 13:36:48;;;;;;;29.30;28.10;;;23.20;43.20;;;;;;5051248;28;20225;-46
2022/02/11 13:39:30;;;;;;;29.10;27.90;;;23.30;42.90;;;;;;5050655;28;20484;-46
2022/02/11 13:41:58;;;;;;;26.50;25.40;;;23.40;43.10;;;;;;5051016;28;20460;-50
2022/02/11 13:44:24;;;;;;;27.33;26.23;;;23.70;42.70;;;;;;5031460;28;20456;-47
2022/02/11 13:46:53;;;;;;;27.87;26.57;;;23.70;42.40;;;;;;5031165;28;20496;-48
2022/02/11 13:49:21;;;;;;;35.60;34.07;;;23.60;42.50;;;;;;5064021;22;20481;-46
2022/02/11 13:54:58;;;;;;;28.13;26.73;;;23.60;42.50;;;;;;5025949;28;20441;-46
2022/02/11 13:57:25;;;;;;;32.07;30.77;;;23.70;42.50;;;;;;5031149;28;20445;-46
2022/02/11 13:59:52;;;;;;;28.37;27.17;;;23.80;42.50;;;;;;5042653;28;20535;-46
2022/02/11 14:02:21;;;;;;;31.63;30.33;;;23.60;42.40;;;;;;5031340;28;20457;-47
2022/02/11 14:04:59;;;;;;;28.03;26.83;;;23.40;42.50;;;;;;5031356;28;20498;-44
2022/02/11 14:07:27;;;;;;;31.50;30.20;;;23.40;42.70;;;;;;5031010;28;20870;-44
2022/02/11 14:09:54;;;;;;;33.63;32.27;;;23.30;43.20;;;;;;5036828;28;20559;-45
2022/02/11 14:12:29;;;;;;;27.80;26.50;;;23.20;43.50;;;;;;5051101;28;20509;-44
2022/02/11 14:14:57;;;;;;;27.60;26.40;;;22.90;42.90;;;;;;5051092;28;20456;-49
2022/02/11 14:17:24;;;;;;;29.43;28.13;;;22.80;43.50;;;;;;5050683;28;20444;-45
2022/02/11 14:19:51;;;;;;;28.50;27.20;;;22.60;43.50;;;;;;5045531;28;21123;-46
2022/02/11 14:22:18;;;;;;;28.20;27.07;;;22.50;42.90;;;;;;5031177;28;20806;-45
2022/02/11 14:24:46;;;;;;;24.70;23.70;;;22.30;43.50;;;;;;5031193;28;20544;-45
2022/02/11 14:27:13;;;;;;;27.67;26.47;;;22.20;43.70;;;;;;5030832;28;20788;-45
2022/02/11 14:29:40;;;;;;;27.80;26.70;;;22.10;43.80;;;;;;5034496;28;20472;-45
2022/02/11 14:32:08;;;;;;;29.17;27.97;;;22.00;44.30;;;;;;5050816;28;20505;-42
2022/02/11 14:34:35;;;;;;;27.17;25.87;;;21.90;44.20;;;;;;5050924;28;20456;-45
2022/02/11 14:37:03;;;;;;;26.00;24.90;;;21.80;44.20;;;;;;5050631;28;20441;-45
2022/02/11 14:39:30;;;;;;;28.73;27.40;;;21.80;44.00;;;;;;5048380;28;20815;-43
2022/02/11 14:42:02;;;;;;;27.40;26.30;;;21.70;44.60;;;;;;5031470;28;20449;-46
2022/02/11 14:44:30;;;;;;;29.13;27.83;;;21.60;44.50;;;;;;5034584;28;20445;-43
2022/02/11 14:46:58;;;;;;;28.13;26.93;;;21.50;44.90;;;;;;5034238;28;20457;-45
2022/02/11 14:49:26;;;;;;;26.03;24.93;;;21.50;44.90;;;;;;5035359;28;20916;-45
2022/02/11 14:51:55;;;;;;;27.70;26.60;;;21.40;45.60;;;;;;5054519;28;20531;-44
2022/02/11 14:54:22;;;;;;;25.20;24.10;;;21.30;45.50;;;;;;5054312;28;20820;-44
2022/02/11 14:56:51;;;;;;;26.80;25.60;;;21.30;45.80;;;;;;5051577;28;20444;-46
2022/02/11 14:59:19;;;;;;;26.10;24.70;;;21.30;45.80;;;;;;5034335;28;20465;-43
2022/02/11 15:01:47;;;;;;;26.17;24.97;;;21.40;46.40;;;;;;5039043;28;20856;-44
2022/02/11 15:04:15;;;;;;;28.30;27.10;;;21.50;46.30;;;;;;5052873;28;20988;-45
2022/02/11 15:06:42;;;;;;;29.30;28.10;;;21.50;46.00;;;;;;5033885;28;20865;-45
2022/02/11 15:09:09;;;;;;;29.10;27.90;;;21.50;46.50;;;;;;5034009;28;20485;-44
2022/02/11 15:11:36;;;;;;;28.03;26.83;;;21.70;46.60;;;;;;5033993;28;20446;-46
2022/02/11 15:14:03;;;;;;;28.80;27.60;;;21.70;46.40;;;;;;5040969;28;20958;-45
2022/02/11 15:16:31;;;;;;;28.80;27.53;;;21.80;46.10;;;;;;5053664;28;20941;-44
2022/02/11 15:18:59;;;;;;;27.17;26.07;;;21.80;45.70;;;;;;5053709;28;20483;-45
2022/02/11 15:21:25;;;;;;;27.13;25.90;;;21.80;46.10;;;;;;5053680;28;20476;-45
2022/02/11 15:23:52;;;;;;;29.03;27.70;;;21.70;45.40;;;;;;5053683;28;20448;-47
2022/02/11 15:26:19;;;;;;;26.80;25.67;;;21.60;44.80;;;;;;5034278;28;20454;-46
2022/02/11 15:28:47;;;;;;;28.13;26.93;;;21.60;45.50;;;;;;5033437;28;20516;-46
2022/02/11 15:31:14;;;;;;;26.37;25.27;;;21.60;45.60;;;;;;5033725;28;20445;-45
2022/02/11 15:33:43;;;;;;;26.80;25.67;;;21.50;45.20;;;;;;5033684;28;20446;-44
2022/02/11 15:36:12;;;;;;;28.77;27.53;;;21.50;45.20;;;;;;5050597;28;20464;-46
2022/02/11 15:38:39;;;;;;;26.63;25.53;;;21.40;45.50;;;;;;5053470;28;20483;-46
2022/02/11 15:41:08;;;;;;;25.50;24.40;;;21.30;45.50;;;;;;5053534;28;20440;-46
2022/02/11 15:43:35;;;;;;;27.07;25.90;;;21.20;45.90;;;;;;5037643;28;20503;-47
2022/02/11 15:46:02;;;;;;;27.80;26.50;;;21.10;46.10;;;;;;5033184;28;20548;-44
2022/02/11 15:48:29;;;;;;;27.83;26.73;;;21.00;45.50;;;;;;5033078;28;20485;-45
2022/02/11 15:50:58;;;;;;;26.93;25.83;;;20.90;46.30;;;;;;5033559;28;20453;-45
2022/02/11 15:53:25;;;;;;;25.40;24.27;;;20.90;46.70;;;;;;5042395;28;20445;-45